マガダン の空港の天気 - METARとTAF

マガダン・ソコル空港 ( UHMM / GDX ) - ロシア マガダン
飛行場実況気象(Metar)
観測時間03/29 08:00 +11 (03/28 21:00 UTC)
風向・風速静穏 0m/s
視程10km以上
天気現象
全天の4割程度の雲 雲底高度 940m
気温-13℃
湿度92%
気圧1014hPa
METARUHMM 282100Z 00000MPS 9999 SCT031 M13/M14 Q1014 R10/CLRD70 RMK MT OBSC QFE746
過去の天気等 Google飛行場航空写真 Wunderground天気予報

過去48時間のMETAR

飛行場予報(TAF)
発表時間: 3/29 06:50 +11 (3/28 19:50 UTC)
予報対象時間: 29日8時 +11 ~ 30日14時 +11
風向・風速西南西 3m/s
視程10km以上
全天の4割程度の雲 雲底高度 1,220m
全天の8割程度の雲 雲底高度 2,130m
TAF UHMM 281950Z 2821/3003 24003MPS 9999 SCT040 BKN070